sensor_id;sensor_type;location;lat;lon;timestamp;pressure;altitude;pressure_sealevel;temperature;humidity
7660;BME280;3872;47.902;8.162;2023-01-28T00:01:29;92034.63;;;-2.47;100.00
7660;BME280;3872;47.902;8.162;2023-01-28T00:03:56;92031.75;;;-2.57;100.00
7660;BME280;3872;47.902;8.162;2023-01-28T00:06:22;92034.16;;;-2.62;100.00
7660;BME280;3872;47.902;8.162;2023-01-28T00:08:49;92039.88;;;-2.60;100.00
7660;BME280;3872;47.902;8.162;2023-01-28T00:11:16;92035.69;;;-2.80;100.00
7660;BME280;3872;47.902;8.162;2023-01-28T00:13:42;92040.78;;;-2.73;100.00
7660;BME280;3872;47.902;8.162;2023-01-28T00:16:09;92043.34;;;-2.73;100.00
7660;BME280;3872;47.902;8.162;2023-01-28T00:18:37;92035.09;;;-2.82;100.00
7660;BME280;3872;47.902;8.162;2023-01-28T00:21:05;92041.81;;;-2.81;100.00
7660;BME280;3872;47.902;8.162;2023-01-28T00:23:34;92040.69;;;-2.85;100.00
7660;BME280;3872;47.902;8.162;2023-01-28T00:26:12;92024.28;;;-2.65;100.00
7660;BME280;3872;47.902;8.162;2023-01-28T00:28:42;92029.34;;;-2.84;100.00
7660;BME280;3872;47.902;8.162;2023-01-28T00:31:13;92027.75;;;-2.78;100.00
7660;BME280;3872;47.902;8.162;2023-01-28T00:33:43;92023.75;;;-2.99;100.00
7660;BME280;3872;47.902;8.162;2023-01-28T00:36:11;92021.38;;;-3.00;100.00
7660;BME280;3872;47.902;8.162;2023-01-28T00:38:38;92032.31;;;-3.11;100.00
7660;BME280;3872;47.902;8.162;2023-01-28T00:41:07;92017.13;;;-2.88;100.00
7660;BME280;3872;47.902;8.162;2023-01-28T00:43:34;92017.84;;;-3.06;100.00
7660;BME280;3872;47.902;8.162;2023-01-28T00:46:01;92016.47;;;-2.84;100.00
7660;BME280;3872;47.902;8.162;2023-01-28T00:48:27;92015.59;;;-2.96;100.00
7660;BME280;3872;47.902;8.162;2023-01-28T00:50:55;92023.19;;;-3.07;100.00
7660;BME280;3872;47.902;8.162;2023-01-28T00:53:22;92015.84;;;-3.04;100.00
7660;BME280;3872;47.902;8.162;2023-01-28T00:55:49;92026.56;;;-3.07;100.00
7660;BME280;3872;47.902;8.162;2023-01-28T00:58:15;92026.56;;;-3.07;100.00
7660;BME280;3872;47.902;8.162;2023-01-28T01:00:42;92021.19;;;-3.05;100.00
7660;BME280;3872;47.902;8.162;2023-01-28T01:03:08;92023.75;;;-2.74;100.00
7660;BME280;3872;47.902;8.162;2023-01-28T01:05:36;92017.44;;;-2.78;100.00
7660;BME280;3872;47.902;8.162;2023-01-28T01:08:04;92013.94;;;-3.15;100.00
7660;BME280;3872;47.902;8.162;2023-01-28T01:10:31;92019.97;;;-2.71;100.00
7660;BME280;3872;47.902;8.162;2023-01-28T01:12:58;92020.31;;;-2.93;100.00
7660;BME280;3872;47.902;8.162;2023-01-28T01:15:25;92011.91;;;-2.82;100.00
7660;BME280;3872;47.902;8.162;2023-01-28T01:17:52;92012.72;;;-3.12;100.00
7660;BME280;3872;47.902;8.162;2023-01-28T01:20:20;92007.16;;;-2.78;100.00
7660;BME280;3872;47.902;8.162;2023-01-28T01:22:49;92010.47;;;-3.02;100.00
7660;BME280;3872;47.902;8.162;2023-01-28T01:25:18;92018.34;;;-3.22;100.00
7660;BME280;3872;47.902;8.162;2023-01-28T01:27:48;92011.50;;;-3.35;100.00
7660;BME280;3872;47.902;8.162;2023-01-28T01:30:15;92003.22;;;-3.12;100.00
7660;BME280;3872;47.902;8.162;2023-01-28T01:32:42;92022.16;;;-3.31;100.00
7660;BME280;3872;47.902;8.162;2023-01-28T01:35:09;92015.84;;;-3.35;100.00
7660;BME280;3872;47.902;8.162;2023-01-28T01:37:38;92015.25;;;-3.37;100.00
7660;BME280;3872;47.902;8.162;2023-01-28T01:40:05;92007.81;;;-3.14;100.00
7660;BME280;3872;47.902;8.162;2023-01-28T01:42:33;92007.41;;;-3.18;100.00
7660;BME280;3872;47.902;8.162;2023-01-28T01:45:02;92010.94;;;-3.12;100.00
7660;BME280;3872;47.902;8.162;2023-01-28T01:47:35;92001.22;;;-3.10;100.00
7660;BME280;3872;47.902;8.162;2023-01-28T01:50:10;92012.03;;;-2.95;100.00
7660;BME280;3872;47.902;8.162;2023-01-28T01:52:39;92020.72;;;-2.96;100.00
7660;BME280;3872;47.902;8.162;2023-01-28T01:55:09;92021.28;;;-2.87;100.00
7660;BME280;3872;47.902;8.162;2023-01-28T01:57:39;92017.13;;;-2.88;100.00
7660;BME280;3872;47.902;8.162;2023-01-28T02:00:08;92021.91;;;-2.92;100.00
7660;BME280;3872;47.902;8.162;2023-01-28T02:02:42;92025.91;;;-2.71;100.00
7660;BME280;3872;47.902;8.162;2023-01-28T02:05:11;92031.28;;;-3.04;100.00
7660;BME280;3872;47.902;8.162;2023-01-28T02:07:39;92027.50;;;-3.01;100.00
7660;BME280;3872;47.902;8.162;2023-01-28T02:10:08;92018.25;;;-2.84;100.00
7660;BME280;3872;47.902;8.162;2023-01-28T02:12:37;92019.41;;;-2.55;100.00
7660;BME280;3872;47.902;8.162;2023-01-28T02:15:08;92025.53;;;-2.74;100.00
7660;BME280;3872;47.902;8.162;2023-01-28T02:17:36;92032.41;;;-2.93;100.00
7660;BME280;3872;47.902;8.162;2023-01-28T02:20:05;92028.56;;;-2.84;100.00
7660;BME280;3872;47.902;8.162;2023-01-28T02:23:06;92033.84;;;-2.72;100.00
7660;BME280;3872;47.902;8.162;2023-01-28T02:26:04;92030.19;;;-2.90;100.00
7660;BME280;3872;47.902;8.162;2023-01-28T02:28:40;92031.38;;;-2.86;100.00
7660;BME280;3872;47.902;8.162;2023-01-28T02:31:13;92034.75;;;-2.85;100.00
7660;BME280;3872;47.902;8.162;2023-01-28T02:33:44;92033.25;;;-2.74;100.00
7660;BME280;3872;47.902;8.162;2023-01-28T02:36:19;92026.31;;;-2.74;100.00
7660;BME280;3872;47.902;8.162;2023-01-28T02:38:49;92031.88;;;-3.02;100.00
7660;BME280;3872;47.902;8.162;2023-01-28T02:41:24;92035.94;;;-2.88;100.00
7660;BME280;3872;47.902;8.162;2023-01-28T02:43:55;92033.34;;;-2.88;100.00
7660;BME280;3872;47.902;8.162;2023-01-28T02:46:33;92036.53;;;-2.86;100.00
7660;BME280;3872;47.902;8.162;2023-01-28T02:49:22;92028.53;;;-2.78;100.00
7660;BME280;3872;47.902;8.162;2023-01-28T02:52:05;92031.66;;;-2.76;100.00
7660;BME280;3872;47.902;8.162;2023-01-28T02:54:39;92038.88;;;-2.84;100.00
7660;BME280;3872;47.902;8.162;2023-01-28T02:57:14;92035.44;;;-2.71;100.00
7660;BME280;3872;47.902;8.162;2023-01-28T02:59:50;92041.13;;;-2.69;100.00
7660;BME280;3872;47.902;8.162;2023-01-28T03:02:23;92035.03;;;-2.75;100.00
7660;BME280;3872;47.902;8.162;2023-01-28T03:04:59;92032.31;;;-2.55;100.00
7660;BME280;3872;47.902;8.162;2023-01-28T03:07:28;92032.78;;;-2.65;100.00
7660;BME280;3872;47.902;8.162;2023-01-28T03:09:57;92030.47;;;-2.48;100.00
7660;BME280;3872;47.902;8.162;2023-01-28T03:12:29;92030.97;;;-2.89;100.00
7660;BME280;3872;47.902;8.162;2023-01-28T03:15:17;92033.28;;;-3.06;100.00
7660;BME280;3872;47.902;8.162;2023-01-28T03:18:04;92032.06;;;-3.03;100.00
7660;BME280;3872;47.902;8.162;2023-01-28T03:20:54;92035.28;;;-2.83;100.00
7660;BME280;3872;47.902;8.162;2023-01-28T03:23:47;92032.03;;;-2.97;100.00
7660;BME280;3872;47.902;8.162;2023-01-28T03:26:37;92037.81;;;-3.01;100.00
7660;BME280;3872;47.902;8.162;2023-01-28T03:29:25;92049.09;;;-2.71;100.00
7660;BME280;3872;47.902;8.162;2023-01-28T03:32:16;92041.03;;;-3.12;100.00
7660;BME280;3872;47.902;8.162;2023-01-28T03:35:03;92041.81;;;-2.81;100.00
7660;BME280;3872;47.902;8.162;2023-01-28T03:37:49;92045.50;;;-2.70;100.00
7660;BME280;3872;47.902;8.162;2023-01-28T03:40:20;92043.03;;;-2.58;100.00
7660;BME280;3872;47.902;8.162;2023-01-28T03:42:46;92049.59;;;-2.87;100.00
7660;BME280;3872;47.902;8.162;2023-01-28T03:45:39;92059.50;;;-2.91;100.00
7660;BME280;3872;47.902;8.162;2023-01-28T03:48:07;92050.53;;;-2.82;100.00
7660;BME280;3872;47.902;8.162;2023-01-28T03:50:34;92050.28;;;-3.05;100.00
7660;BME280;3872;47.902;8.162;2023-01-28T03:53:01;92053.16;;;-2.88;100.00
7660;BME280;3872;47.902;8.162;2023-01-28T03:55:44;92057.97;;;-2.98;100.00
7660;BME280;3872;47.902;8.162;2023-01-28T03:58:11;92053.84;;;-2.74;100.00
7660;BME280;3872;47.902;8.162;2023-01-28T04:00:38;92058.59;;;-3.03;100.00
7660;BME280;3872;47.902;8.162;2023-01-28T04:03:08;92049.69;;;-2.76;100.00
7660;BME280;3872;47.902;8.162;2023-01-28T04:05:41;92046.63;;;-2.91;100.00
7660;BME280;3872;47.902;8.162;2023-01-28T04:08:08;92050.97;;;-2.85;100.00
7660;BME280;3872;47.902;8.162;2023-01-28T04:10:53;92048.72;;;-2.74;100.00
7660;BME280;3872;47.902;8.162;2023-01-28T04:13:25;92047.44;;;-2.41;100.00
7660;BME280;3872;47.902;8.162;2023-01-28T04:15:52;92047.47;;;-2.65;100.00
7660;BME280;3872;47.902;8.162;2023-01-28T04:18:20;92048.09;;;-2.45;100.00
7660;BME280;3872;47.902;8.162;2023-01-28T04:20:51;92047.63;;;-2.35;100.00
7660;BME280;3872;47.902;8.162;2023-01-28T04:23:18;92048.81;;;-2.38;100.00
7660;BME280;3872;47.902;8.162;2023-01-28T04:25:44;92053.59;;;-2.66;100.00
7660;BME280;3872;47.902;8.162;2023-01-28T04:28:15;92049.81;;;-2.89;100.00
7660;BME280;3872;47.902;8.162;2023-01-28T04:30:41;92057.63;;;-2.77;100.00
7660;BME280;3872;47.902;8.162;2023-01-28T04:33:28;92052.88;;;-2.49;100.00
7660;BME280;3872;47.902;8.162;2023-01-28T04:36:17;92049.34;;;-2.54;100.00
7660;BME280;3872;47.902;8.162;2023-01-28T04:38:59;92058.91;;;-2.61;100.00
7660;BME280;3872;47.902;8.162;2023-01-28T04:41:36;92046.03;;;-2.37;100.00
7660;BME280;3872;47.902;8.162;2023-01-28T04:44:13;92059.44;;;-2.28;100.00
7660;BME280;3872;47.902;8.162;2023-01-28T04:47:07;92055.16;;;-2.41;100.00
7660;BME280;3872;47.902;8.162;2023-01-28T04:49:50;92058.78;;;-2.42;100.00
7660;BME280;3872;47.902;8.162;2023-01-28T04:52:41;92062.13;;;-2.41;100.00
7660;BME280;3872;47.902;8.162;2023-01-28T04:55:33;92066.44;;;-2.60;100.00
7660;BME280;3872;47.902;8.162;2023-01-28T04:58:00;92064.38;;;-2.26;100.00
7660;BME280;3872;47.902;8.162;2023-01-28T05:00:27;92062.81;;;-2.52;100.00
7660;BME280;3872;47.902;8.162;2023-01-28T05:02:53;92071.47;;;-2.47;100.00
7660;BME280;3872;47.902;8.162;2023-01-28T05:05:21;92087.28;;;-2.68;100.00
7660;BME280;3872;47.902;8.162;2023-01-28T05:07:57;92079.72;;;-2.63;100.00
7660;BME280;3872;47.902;8.162;2023-01-28T05:10:25;92082.28;;;-2.88;100.00
7660;BME280;3872;47.902;8.162;2023-01-28T05:12:53;92086.78;;;-2.83;100.00
7660;BME280;3872;47.902;8.162;2023-01-28T05:15:20;92088.81;;;-2.60;100.00
7660;BME280;3872;47.902;8.162;2023-01-28T05:17:47;92092.13;;;-2.78;100.00
7660;BME280;3872;47.902;8.162;2023-01-28T05:20:17;92096.50;;;-2.79;100.00
7660;BME280;3872;47.902;8.162;2023-01-28T05:22:47;92091.41;;;-2.60;100.00
7660;BME280;3872;47.902;8.162;2023-01-28T05:25:17;92094.25;;;-3.00;100.00
7660;BME280;3872;47.902;8.162;2023-01-28T05:27:48;92095.81;;;-2.99;100.00
7660;BME280;3872;47.902;8.162;2023-01-28T05:30:16;92097.13;;;-2.90;100.00
7660;BME280;3872;47.902;8.162;2023-01-28T05:32:42;92087.63;;;-2.89;100.00
7660;BME280;3872;47.902;8.162;2023-01-28T05:35:10;92093.53;;;-2.51;100.00
7660;BME280;3872;47.902;8.162;2023-01-28T05:37:36;92097.88;;;-2.83;100.00
7660;BME280;3872;47.902;8.162;2023-01-28T05:40:06;92104.06;;;-2.90;100.00
7660;BME280;3872;47.902;8.162;2023-01-28T05:42:32;92097.09;;;-2.83;100.00
7660;BME280;3872;47.902;8.162;2023-01-28T05:45:22;92092.81;;;-2.96;100.00
7660;BME280;3872;47.902;8.162;2023-01-28T05:48:01;92099.97;;;-2.98;100.00
7660;BME280;3872;47.902;8.162;2023-01-28T05:50:54;92100.59;;;-3.02;100.00
7660;BME280;3872;47.902;8.162;2023-01-28T05:53:30;92089.91;;;-2.74;100.00
7660;BME280;3872;47.902;8.162;2023-01-28T05:55:58;92093.72;;;-2.52;100.00
7660;BME280;3872;47.902;8.162;2023-01-28T05:58:25;92092.19;;;-2.60;100.00
7660;BME280;3872;47.902;8.162;2023-01-28T06:00:55;92097.97;;;-2.64;100.00
7660;BME280;3872;47.902;8.162;2023-01-28T06:03:27;92105.72;;;-2.64;100.00
7660;BME280;3872;47.902;8.162;2023-01-28T06:05:54;92104.66;;;-2.88;100.00
7660;BME280;3872;47.902;8.162;2023-01-28T06:08:21;92107.44;;;-2.90;100.00
7660;BME280;3872;47.902;8.162;2023-01-28T06:10:48;92109.56;;;-2.49;100.00
7660;BME280;3872;47.902;8.162;2023-01-28T06:13:16;92107.28;;;-2.63;100.00
7660;BME280;3872;47.902;8.162;2023-01-28T06:16:01;92114.44;;;-2.65;100.00
7660;BME280;3872;47.902;8.162;2023-01-28T06:18:39;92114.75;;;-2.87;100.00
7660;BME280;3872;47.902;8.162;2023-01-28T06:21:07;92118.19;;;-2.68;100.00
7660;BME280;3872;47.902;8.162;2023-01-28T06:23:33;92123.00;;;-2.71;100.00
7660;BME280;3872;47.902;8.162;2023-01-28T06:26:02;92125.31;;;-2.63;100.00
7660;BME280;3872;47.902;8.162;2023-01-28T06:28:30;92126.63;;;-2.54;100.00
7660;BME280;3872;47.902;8.162;2023-01-28T06:30:57;92133.47;;;-2.66;100.00
7660;BME280;3872;47.902;8.162;2023-01-28T06:33:23;92128.06;;;-2.96;100.00
7660;BME280;3872;47.902;8.162;2023-01-28T06:35:50;92140.13;;;-2.90;100.00
7660;BME280;3872;47.902;8.162;2023-01-28T06:38:17;92137.31;;;-2.82;100.00
7660;BME280;3872;47.902;8.162;2023-01-28T06:40:43;92134.34;;;-2.79;100.00
7660;BME280;3872;47.902;8.162;2023-01-28T06:43:10;92134.53;;;-2.81;100.00
7660;BME280;3872;47.902;8.162;2023-01-28T06:45:38;92132.19;;;-2.89;100.00
7660;BME280;3872;47.902;8.162;2023-01-28T06:48:05;92140.31;;;-2.85;100.00
7660;BME280;3872;47.902;8.162;2023-01-28T06:50:32;92143.16;;;-3.00;100.00
7660;BME280;3872;47.902;8.162;2023-01-28T06:52:58;92147.44;;;-2.87;100.00
7660;BME280;3872;47.902;8.162;2023-01-28T06:55:25;92151.59;;;-2.55;100.00
7660;BME280;3872;47.902;8.162;2023-01-28T06:57:51;92154.94;;;-2.79;100.00
7660;BME280;3872;47.902;8.162;2023-01-28T07:00:18;92154.47;;;-2.38;100.00
7660;BME280;3872;47.902;8.162;2023-01-28T07:02:46;92152.28;;;-2.66;100.00
7660;BME280;3872;47.902;8.162;2023-01-28T07:05:13;92160.16;;;-2.61;100.00
7660;BME280;3872;47.902;8.162;2023-01-28T07:07:39;92158.88;;;-2.77;100.00
7660;BME280;3872;47.902;8.162;2023-01-28T07:10:07;92162.16;;;-2.56;100.00
7660;BME280;3872;47.902;8.162;2023-01-28T07:12:33;92159.88;;;-2.78;100.00
7660;BME280;3872;47.902;8.162;2023-01-28T07:15:00;92164.66;;;-2.81;100.00
7660;BME280;3872;47.902;8.162;2023-01-28T07:17:26;92164.50;;;-2.93;100.00
7660;BME280;3872;47.902;8.162;2023-01-28T07:19:54;92169.34;;;-2.71;100.00
7660;BME280;3872;47.902;8.162;2023-01-28T07:22:21;92175.31;;;-2.71;100.00
7660;BME280;3872;47.902;8.162;2023-01-28T07:24:47;92171.16;;;-2.72;100.00
7660;BME280;3872;47.902;8.162;2023-01-28T07:27:14;92174.59;;;-2.85;100.00
7660;BME280;3872;47.902;8.162;2023-01-28T07:29:40;92175.25;;;-2.64;100.00
7660;BME280;3872;47.902;8.162;2023-01-28T07:32:07;92173.09;;;-2.36;100.00
7660;BME280;3872;47.902;8.162;2023-01-28T07:34:33;92182.81;;;-2.69;100.00
7660;BME280;3872;47.902;8.162;2023-01-28T07:37:03;92181.06;;;-2.76;100.00
7660;BME280;3872;47.902;8.162;2023-01-28T07:39:33;92184.63;;;-2.39;100.00
7660;BME280;3872;47.902;8.162;2023-01-28T07:42:00;92172.41;;;-2.50;100.00
7660;BME280;3872;47.902;8.162;2023-01-28T07:44:37;92182.03;;;-2.39;100.00
7660;BME280;3872;47.902;8.162;2023-01-28T07:47:04;92180.53;;;-2.53;100.00
7660;BME280;3872;47.902;8.162;2023-01-28T07:49:32;92185.13;;;-2.61;100.00
7660;BME280;3872;47.902;8.162;2023-01-28T07:51:59;92174.97;;;-2.50;100.00
7660;BME280;3872;47.902;8.162;2023-01-28T07:54:27;92187.03;;;-2.82;100.00
7660;BME280;3872;47.902;8.162;2023-01-28T07:56:54;92183.97;;;-2.65;100.00
7660;BME280;3872;47.902;8.162;2023-01-28T07:59:21;92192.03;;;-2.55;100.00
7660;BME280;3872;47.902;8.162;2023-01-28T08:01:47;92193.25;;;-2.58;100.00
7660;BME280;3872;47.902;8.162;2023-01-28T08:04:14;92185.38;;;-2.69;100.00
7660;BME280;3872;47.902;8.162;2023-01-28T08:06:40;92195.47;;;-2.68;100.00
7660;BME280;3872;47.902;8.162;2023-01-28T08:09:07;92196.66;;;-2.64;100.00
7660;BME280;3872;47.902;8.162;2023-01-28T08:11:37;92198.91;;;-2.43;100.00
7660;BME280;3872;47.902;8.162;2023-01-28T08:14:03;92193.03;;;-2.25;100.00
7660;BME280;3872;47.902;8.162;2023-01-28T08:16:30;92198.13;;;-2.43;100.00
7660;BME280;3872;47.902;8.162;2023-01-28T08:18:57;92205.66;;;-2.48;100.00
7660;BME280;3872;47.902;8.162;2023-01-28T08:21:24;92213.91;;;-2.33;100.00
7660;BME280;3872;47.902;8.162;2023-01-28T08:23:50;92225.09;;;-2.46;100.00
7660;BME280;3872;47.902;8.162;2023-01-28T08:26:16;92220.81;;;-2.27;100.00
7660;BME280;3872;47.902;8.162;2023-01-28T08:28:44;92222.19;;;-2.62;100.00
7660;BME280;3872;47.902;8.162;2023-01-28T08:31:11;92234.47;;;-2.58;100.00
7660;BME280;3872;47.902;8.162;2023-01-28T08:33:37;92236.03;;;-2.50;100.00
7660;BME280;3872;47.902;8.162;2023-01-28T08:36:05;92238.94;;;-2.40;100.00
7660;BME280;3872;47.902;8.162;2023-01-28T08:38:31;92235.59;;;-2.47;100.00
7660;BME280;3872;47.902;8.162;2023-01-28T08:40:58;92234.63;;;-2.15;100.00
7660;BME280;3872;47.902;8.162;2023-01-28T08:43:24;92236.06;;;-2.57;100.00
7660;BME280;3872;47.902;8.162;2023-01-28T08:45:52;92240.16;;;-2.43;100.00
7660;BME280;3872;47.902;8.162;2023-01-28T08:48:19;92238.59;;;-2.19;100.00
7660;BME280;3872;47.902;8.162;2023-01-28T08:50:46;92239.63;;;-2.26;100.00
7660;BME280;3872;47.902;8.162;2023-01-28T08:53:14;92237.22;;;-2.15;100.00
7660;BME280;3872;47.902;8.162;2023-01-28T08:55:41;92232.91;;;-2.21;100.00
7660;BME280;3872;47.902;8.162;2023-01-28T08:58:10;92237.66;;;-1.93;100.00
7660;BME280;3872;47.902;8.162;2023-01-28T09:00:38;92235.91;;;-1.99;100.00
7660;BME280;3872;47.902;8.162;2023-01-28T09:03:06;92242.34;;;-1.83;100.00
7660;BME280;3872;47.902;8.162;2023-01-28T09:05:34;92248.53;;;-1.91;100.00
7660;BME280;3872;47.902;8.162;2023-01-28T09:08:02;92253.34;;;-1.45;100.00
7660;BME280;3872;47.902;8.162;2023-01-28T09:10:28;92240.22;;;-1.43;100.00
7660;BME280;3872;47.902;8.162;2023-01-28T09:12:55;92254.50;;;-1.66;100.00
7660;BME280;3872;47.902;8.162;2023-01-28T09:15:21;92247.72;;;-1.60;100.00
7660;BME280;3872;47.902;8.162;2023-01-28T09:17:48;92253.34;;;-1.70;100.00
7660;BME280;3872;47.902;8.162;2023-01-28T09:20:16;92248.72;;;-1.61;100.00
7660;BME280;3872;47.902;8.162;2023-01-28T09:22:43;92245.03;;;-1.72;100.00
7660;BME280;3872;47.902;8.162;2023-01-28T09:25:09;92246.44;;;-2.01;100.00
7660;BME280;3872;47.902;8.162;2023-01-28T09:27:36;92258.81;;;-1.84;100.00
7660;BME280;3872;47.902;8.162;2023-01-28T09:30:03;92251.25;;;-1.79;100.00
7660;BME280;3872;47.902;8.162;2023-01-28T09:32:31;92257.34;;;-1.74;100.00
7660;BME280;3872;47.902;8.162;2023-01-28T09:34:57;92253.50;;;-1.89;100.00
7660;BME280;3872;47.902;8.162;2023-01-28T09:37:26;92256.75;;;-1.76;100.00
7660;BME280;3872;47.902;8.162;2023-01-28T09:39:52;92260.38;;;-2.08;100.00
7660;BME280;3872;47.902;8.162;2023-01-28T09:42:42;92264.78;;;-2.15;100.00
7660;BME280;3872;47.902;8.162;2023-01-28T09:45:14;92266.28;;;-2.01;100.00
7660;BME280;3872;47.902;8.162;2023-01-28T09:47:43;92268.22;;;-1.65;100.00
7660;BME280;3872;47.902;8.162;2023-01-28T09:50:17;92250.91;;;-1.40;100.00
7660;BME280;3872;47.902;8.162;2023-01-28T09:52:46;92258.94;;;-1.73;100.00
7660;BME280;3872;47.902;8.162;2023-01-28T09:55:19;92254.56;;;-1.72;100.00
7660;BME280;3872;47.902;8.162;2023-01-28T09:57:50;92259.59;;;-1.84;100.00
7660;BME280;3872;47.902;8.162;2023-01-28T10:00:20;92267.28;;;-1.77;100.00
7660;BME280;3872;47.902;8.162;2023-01-28T10:02:59;92263.13;;;-1.53;100.00
7660;BME280;3872;47.902;8.162;2023-01-28T10:05:34;92258.91;;;-1.48;100.00
7660;BME280;3872;47.902;8.162;2023-01-28T10:08:17;92265.81;;;-1.67;100.00
7660;BME280;3872;47.902;8.162;2023-01-28T10:10:55;92264.34;;;-1.31;100.00
7660;BME280;3872;47.902;8.162;2023-01-28T10:13:30;92258.44;;;-0.95;100.00
7660;BME280;3872;47.902;8.162;2023-01-28T10:16:11;92267.84;;;-1.01;100.00
7660;BME280;3872;47.902;8.162;2023-01-28T10:18:44;92267.50;;;-1.29;100.00
7660;BME280;3872;47.902;8.162;2023-01-28T10:21:17;92263.59;;;-0.95;100.00
7660;BME280;3872;47.902;8.162;2023-01-28T10:23:54;92258.38;;;-1.32;100.00
7660;BME280;3872;47.902;8.162;2023-01-28T10:26:26;92261.44;;;-0.98;100.00
7660;BME280;3872;47.902;8.162;2023-01-28T10:28:57;92265.31;;;-1.50;100.00
7660;BME280;3872;47.902;8.162;2023-01-28T10:31:30;92268.47;;;-0.51;100.00
7660;BME280;3872;47.902;8.162;2023-01-28T10:33:58;92263.66;;;-0.47;100.00
7660;BME280;3872;47.902;8.162;2023-01-28T10:36:25;92263.69;;;-0.35;100.00
7660;BME280;3872;47.902;8.162;2023-01-28T10:38:53;92258.88;;;-0.80;100.00
7660;BME280;3872;47.902;8.162;2023-01-28T10:41:21;92261.50;;;-0.68;100.00
7660;BME280;3872;47.902;8.162;2023-01-28T10:43:50;92250.13;;;-0.49;100.00
7660;BME280;3872;47.902;8.162;2023-01-28T10:46:19;92257.66;;;-1.39;100.00
7660;BME280;3872;47.902;8.162;2023-01-28T10:48:53;92252.88;;;-1.60;100.00
7660;BME280;3872;47.902;8.162;2023-01-28T10:51:29;92261.28;;;-1.22;100.00
7660;BME280;3872;47.902;8.162;2023-01-28T10:53:58;92258.56;;;-1.08;100.00
7660;BME280;3872;47.902;8.162;2023-01-28T10:56:27;92263.56;;;-1.32;100.00
7660;BME280;3872;47.902;8.162;2023-01-28T10:58:58;92254.38;;;-1.28;100.00
7660;BME280;3872;47.902;8.162;2023-01-28T11:01:37;92245.78;;;-0.67;100.00
7660;BME280;3872;47.902;8.162;2023-01-28T11:04:04;92236.88;;;-0.71;100.00
7660;BME280;3872;47.902;8.162;2023-01-28T11:06:31;92233.16;;;-0.27;100.00
7660;BME280;3872;47.902;8.162;2023-01-28T11:08:59;92232.50;;;-0.22;100.00
7660;BME280;3872;47.902;8.162;2023-01-28T11:11:26;92232.81;;;-0.78;100.00
7660;BME280;3872;47.902;8.162;2023-01-28T11:13:54;92230.13;;;-0.24;100.00
7660;BME280;3872;47.902;8.162;2023-01-28T11:16:23;92231.41;;;-0.45;100.00
7660;BME280;3872;47.902;8.162;2023-01-28T11:18:52;92239.16;;;-0.45;100.00
7660;BME280;3872;47.902;8.162;2023-01-28T11:21:21;92236.09;;;-0.53;100.00
7660;BME280;3872;47.902;8.162;2023-01-28T11:23:51;92240.47;;;-0.54;100.00
7660;BME280;3872;47.902;8.162;2023-01-28T11:26:23;92236.66;;;-0.69;100.00
7660;BME280;3872;47.902;8.162;2023-01-28T11:28:51;92242.91;;;-0.59;100.00
7660;BME280;3872;47.902;8.162;2023-01-28T11:31:19;92246.13;;;-1.18;100.00
7660;BME280;3872;47.902;8.162;2023-01-28T11:33:49;92247.22;;;-0.71;100.00
7660;BME280;3872;47.902;8.162;2023-01-28T11:36:19;92249.22;;;-0.36;100.00
7660;BME280;3872;47.902;8.162;2023-01-28T11:38:48;92248.25;;;-0.24;100.00
7660;BME280;3872;47.902;8.162;2023-01-28T11:41:14;92247.91;;;-0.46;100.00
7660;BME280;3872;47.902;8.162;2023-01-28T11:43:42;92246.47;;;-0.42;100.00
7660;BME280;3872;47.902;8.162;2023-01-28T11:46:30;92249.66;;;-0.58;100.00
7660;BME280;3872;47.902;8.162;2023-01-28T11:49:06;92236.28;;;-0.55;100.00
7660;BME280;3872;47.902;8.162;2023-01-28T11:51:39;92234.75;;;-0.74;100.00
7660;BME280;3872;47.902;8.162;2023-01-28T11:54:26;92242.88;;;-1.07;100.00
7660;BME280;3872;47.902;8.162;2023-01-28T11:57:12;92243.94;;;-0.96;100.00
7660;BME280;3872;47.902;8.162;2023-01-28T11:59:53;92240.88;;;-0.57;100.00
7660;BME280;3872;47.902;8.162;2023-01-28T12:02:38;92242.28;;;-0.72;100.00
7660;BME280;3872;47.902;8.162;2023-01-28T12:05:26;92235.16;;;-0.59;100.00
7660;BME280;3872;47.902;8.162;2023-01-28T12:08:02;92245.22;;;-0.69;100.00
7660;BME280;3872;47.902;8.162;2023-01-28T12:10:37;92249.22;;;-0.55;100.00
7660;BME280;3872;47.902;8.162;2023-01-28T12:13:14;92238.00;;;-0.30;100.00
7660;BME280;3872;47.902;8.162;2023-01-28T12:16:01;92230.63;;;0.38;100.00
7660;BME280;3872;47.902;8.162;2023-01-28T12:18:47;92246.66;;;-0.25;100.00
7660;BME280;3872;47.902;8.162;2023-01-28T12:21:25;92244.09;;;-0.73;100.00
7660;BME280;3872;47.902;8.162;2023-01-28T12:24:03;92254.84;;;-0.76;100.00
7660;BME280;3872;47.902;8.162;2023-01-28T12:26:44;92243.50;;;-0.75;100.00
7660;BME280;3872;47.902;8.162;2023-01-28T12:29:26;92251.81;;;-0.55;100.00
7660;BME280;3872;47.902;8.162;2023-01-28T12:32:12;92251.75;;;-0.66;100.00
7660;BME280;3872;47.902;8.162;2023-01-28T12:34:51;92250.16;;;-0.67;100.00
7660;BME280;3872;47.902;8.162;2023-01-28T12:37:30;92253.78;;;-0.87;100.00
7660;BME280;3872;47.902;8.162;2023-01-28T12:40:11;92242.94;;;-0.95;100.00
7660;BME280;3872;47.902;8.162;2023-01-28T12:42:47;92253.19;;;-0.89;100.00
7660;BME280;3872;47.902;8.162;2023-01-28T12:45:20;92248.09;;;-0.95;100.00
7660;BME280;3872;47.902;8.162;2023-01-28T12:47:54;92252.31;;;-0.83;100.00
7660;BME280;3872;47.902;8.162;2023-01-28T12:50:26;92251.03;;;-0.73;100.00
7660;BME280;3872;47.902;8.162;2023-01-28T12:52:56;92248.94;;;-0.83;100.00
7660;BME280;3872;47.902;8.162;2023-01-28T12:55:36;92249.03;;;-0.71;100.00
7660;BME280;3872;47.902;8.162;2023-01-28T12:58:10;92251.69;;;-1.14;100.00
7660;BME280;3872;47.902;8.162;2023-01-28T13:00:40;92254.25;;;-0.96;100.00
7660;BME280;3872;47.902;8.162;2023-01-28T13:03:19;92251.75;;;-1.03;100.00
7660;BME280;3872;47.902;8.162;2023-01-28T13:05:50;92255.09;;;-1.21;100.00
7660;BME280;3872;47.902;8.162;2023-01-28T13:08:21;92255.88;;;-1.20;100.00
7660;BME280;3872;47.902;8.162;2023-01-28T13:10:49;92256.00;;;-1.33;100.00
7660;BME280;3872;47.902;8.162;2023-01-28T13:13:17;92249.81;;;-1.07;100.00
7660;BME280;3872;47.902;8.162;2023-01-28T13:15:47;92248.09;;;-0.95;100.00
7660;BME280;3872;47.902;8.162;2023-01-28T13:18:33;92260.50;;;-1.22;100.00
7660;BME280;3872;47.902;8.162;2023-01-28T13:21:00;92256.13;;;-1.46;100.00
7660;BME280;3872;47.902;8.162;2023-01-28T13:23:37;92263.28;;;-1.24;100.00
7660;BME280;3872;47.902;8.162;2023-01-28T13:26:26;92275.25;;;-1.54;100.00
7660;BME280;3872;47.902;8.162;2023-01-28T13:28:54;92272.94;;;-1.37;100.00
7660;BME280;3872;47.902;8.162;2023-01-28T13:31:37;92265.00;;;-1.17;100.00
7660;BME280;3872;47.902;8.162;2023-01-28T13:34:06;92270.22;;;-1.24;100.00